createdAt,value
2023-04-22T00:02:45.933Z,99.90
2023-04-22T00:05:34.653Z,99.90
2023-04-22T00:08:23.187Z,99.90
2023-04-22T00:11:11.415Z,99.90
2023-04-22T00:14:00.249Z,99.90
2023-04-22T00:16:50.377Z,99.90
2023-04-22T00:19:38.881Z,99.90
2023-04-22T00:22:27.610Z,99.90
2023-04-22T00:25:17.381Z,99.90
2023-04-22T00:28:05.730Z,99.90
2023-04-22T00:30:54.413Z,99.90
2023-04-22T00:33:44.162Z,99.90
2023-04-22T00:36:33.425Z,99.90
2023-04-22T00:39:22.159Z,99.90
2023-04-22T00:42:11.376Z,99.90
2023-04-22T00:45:00.688Z,99.90
2023-04-22T00:47:49.965Z,99.90
2023-04-22T00:50:39.870Z,99.90
2023-04-22T00:53:28.272Z,99.90
2023-04-22T00:56:17.397Z,99.90
2023-04-22T00:59:06.364Z,99.90
2023-04-22T01:01:56.009Z,99.90
2023-04-22T01:04:44.734Z,99.90
2023-04-22T01:07:34.768Z,99.90
2023-04-22T01:10:23.476Z,99.90
2023-04-22T01:13:12.078Z,99.90
2023-04-22T01:16:02.863Z,99.90
2023-04-22T01:18:53.116Z,99.90
2023-04-22T01:21:45.053Z,99.90
2023-04-22T01:24:36.083Z,99.90
2023-04-22T01:27:24.822Z,99.90
2023-04-22T01:30:13.932Z,99.90
2023-04-22T01:33:02.357Z,99.90
2023-04-22T01:35:51.173Z,99.90
2023-04-22T01:38:40.092Z,99.90
2023-04-22T01:41:30.118Z,99.90
2023-04-22T01:44:19.914Z,99.90
2023-04-22T01:47:08.122Z,99.90
2023-04-22T01:49:56.322Z,99.90
2023-04-22T01:52:45.128Z,99.90
2023-04-22T01:55:36.261Z,99.90
2023-04-22T01:58:26.090Z,99.90
2023-04-22T02:01:14.984Z,99.90
2023-04-22T02:04:03.654Z,99.90
2023-04-22T02:06:51.963Z,99.90
2023-04-22T02:09:40.754Z,99.90
2023-04-22T02:12:29.997Z,99.90
2023-04-22T02:15:19.806Z,99.90
2023-04-22T02:18:08.966Z,99.90
2023-04-22T02:20:57.704Z,99.90
2023-04-22T02:23:45.923Z,99.90
2023-04-22T02:26:34.528Z,99.90
2023-04-22T02:29:24.495Z,99.90
2023-04-22T02:32:14.508Z,99.90
2023-04-22T02:35:03.421Z,99.90
2023-04-22T02:37:51.712Z,99.90
2023-04-22T02:40:39.895Z,99.90
2023-04-22T02:43:28.384Z,99.90
2023-04-22T02:46:17.410Z,99.90
2023-04-22T02:49:07.540Z,99.90
2023-04-22T02:51:55.864Z,99.90
2023-04-22T02:54:44.208Z,99.90
2023-04-22T02:57:32.772Z,99.90
2023-04-22T03:00:21.511Z,99.90
2023-04-22T03:03:09.987Z,99.90
2023-04-22T03:05:59.831Z,99.90
2023-04-22T03:08:48.344Z,99.90
2023-04-22T03:11:36.813Z,99.90
2023-04-22T03:14:25.409Z,99.90
2023-04-22T03:17:14.774Z,99.90
2023-04-22T03:20:03.328Z,99.90
2023-04-22T03:22:53.435Z,99.90
2023-04-22T03:25:42.413Z,99.90
2023-04-22T03:28:30.768Z,99.90
2023-04-22T03:31:19.425Z,99.90
2023-04-22T03:34:07.593Z,99.90
2023-04-22T03:36:55.828Z,99.90
2023-04-22T03:39:45.626Z,99.90
2023-04-22T03:42:34.026Z,99.90
2023-04-22T03:45:22.585Z,99.90
2023-04-22T03:48:11.090Z,99.90
2023-04-22T03:50:59.440Z,99.90
2023-04-22T03:53:47.532Z,99.90
2023-04-22T03:56:37.250Z,99.90
2023-04-22T03:59:25.612Z,99.90
2023-04-22T04:02:14.222Z,99.90
2023-04-22T04:05:03.489Z,99.90
2023-04-22T04:07:52.463Z,99.90
2023-04-22T04:10:41.382Z,99.90
2023-04-22T04:13:32.621Z,99.90
2023-04-22T04:16:21.263Z,99.90
2023-04-22T04:19:09.997Z,99.90
2023-04-22T04:22:01.766Z,99.90
2023-04-22T04:24:51.311Z,99.90
2023-04-22T04:27:42.117Z,99.90
2023-04-22T04:30:33.671Z,99.90
2023-04-22T04:33:23.204Z,99.90
2023-04-22T04:36:11.702Z,99.90
2023-04-22T04:39:00.203Z,99.90
2023-04-22T04:41:49.615Z,99.90
2023-04-22T04:44:39.242Z,99.90
2023-04-22T04:47:30.554Z,99.90
2023-04-22T04:50:20.154Z,99.90
2023-04-22T04:53:08.524Z,99.90
2023-04-22T04:55:57.802Z,99.90
2023-04-22T04:58:46.211Z,99.90
2023-04-22T05:01:35.106Z,99.90
2023-04-22T05:04:25.645Z,99.90
2023-04-22T05:07:15.412Z,99.90
2023-04-22T05:10:05.543Z,99.90
2023-04-22T05:12:54.727Z,99.90
2023-04-22T05:15:43.722Z,99.90
2023-04-22T05:18:33.228Z,99.90
2023-04-22T05:21:23.927Z,99.90
2023-04-22T05:24:12.813Z,99.90
2023-04-22T05:27:01.978Z,99.90
2023-04-22T05:29:50.754Z,99.90
2023-04-22T05:32:38.811Z,99.90
2023-04-22T05:35:27.793Z,99.90
2023-04-22T05:38:17.638Z,99.90
2023-04-22T05:41:05.754Z,99.90
2023-04-22T05:43:53.827Z,99.90
2023-04-22T05:46:41.829Z,99.90
2023-04-22T05:49:30.121Z,99.90
2023-04-22T05:52:18.868Z,99.90
2023-04-22T05:55:09.475Z,99.90
2023-04-22T05:57:57.669Z,99.90
2023-04-22T06:00:46.242Z,99.90
2023-04-22T06:03:34.804Z,99.90
2023-04-22T06:06:22.912Z,99.90
2023-04-22T06:09:11.285Z,99.90
2023-04-22T06:12:02.110Z,99.90
2023-04-22T06:14:50.271Z,99.90
2023-04-22T06:17:39.429Z,99.90
2023-04-22T06:20:27.610Z,99.90
2023-04-22T06:23:15.729Z,99.90
2023-04-22T06:26:03.892Z,99.90
2023-04-22T06:28:53.492Z,99.90
2023-04-22T06:31:41.524Z,99.90
2023-04-22T06:34:29.675Z,99.90
2023-04-22T06:37:17.898Z,99.90
2023-04-22T06:40:06.780Z,99.90
2023-04-22T06:42:54.920Z,99.90
2023-04-22T06:45:44.791Z,99.90
2023-04-22T06:48:32.864Z,99.90
2023-04-22T06:51:21.012Z,99.90
2023-04-22T06:54:09.308Z,99.90
2023-04-22T06:56:57.605Z,99.90
2023-04-22T06:59:47.010Z,99.90
2023-04-22T07:02:37.023Z,99.90
2023-04-22T07:05:25.858Z,99.90
2023-04-22T07:08:13.853Z,99.90
2023-04-22T07:11:01.944Z,99.90
2023-04-22T07:13:50.163Z,99.90
2023-04-22T07:16:38.951Z,99.90
2023-04-22T07:19:28.535Z,99.90
2023-04-22T07:22:16.855Z,99.90
2023-04-22T07:25:07.210Z,99.90
2023-04-22T07:27:55.656Z,99.90
2023-04-22T07:30:43.718Z,99.90
2023-04-22T07:33:31.879Z,99.90
2023-04-22T07:36:21.418Z,99.90
2023-04-22T07:39:09.981Z,99.90
2023-04-22T07:41:58.670Z,99.90
2023-04-22T07:44:46.675Z,99.90
2023-04-22T07:47:35.010Z,99.90
2023-04-22T07:50:23.543Z,99.90
2023-04-22T07:53:13.455Z,99.90
2023-04-22T07:56:03.217Z,99.90
2023-04-22T07:58:51.453Z,99.90
2023-04-22T08:01:39.465Z,99.90
2023-04-22T08:04:27.633Z,99.90
2023-04-22T08:07:32.541Z,99.90
2023-04-22T08:10:22.833Z,99.90
2023-04-22T08:13:11.278Z,99.90
2023-04-22T08:16:02.777Z,99.90
2023-04-22T08:18:52.152Z,99.90
2023-04-22T08:21:40.150Z,99.90
2023-04-22T08:24:28.245Z,99.90
2023-04-22T08:27:19.364Z,99.90
2023-04-22T08:30:09.100Z,99.90
2023-04-22T08:32:57.272Z,99.90
2023-04-22T08:35:45.356Z,99.90
2023-04-22T08:38:33.566Z,99.90
2023-04-22T08:41:24.548Z,99.90
2023-04-22T08:44:15.514Z,99.90
2023-04-22T08:47:04.838Z,99.90
2023-04-22T08:49:56.480Z,99.90
2023-04-22T08:52:44.941Z,99.90
2023-04-22T08:55:33.436Z,99.90
2023-04-22T08:58:23.632Z,99.90
2023-04-22T09:01:14.612Z,99.90
2023-04-22T09:04:03.883Z,99.90
2023-04-22T09:06:55.378Z,99.90
2023-04-22T09:09:44.996Z,99.90
2023-04-22T09:12:33.437Z,99.90
2023-04-22T09:15:21.782Z,99.90
2023-04-22T09:18:12.215Z,99.90
2023-04-22T09:21:00.634Z,99.90
2023-04-22T09:23:50.731Z,99.90
2023-04-22T09:26:42.250Z,99.90
2023-04-22T09:29:31.794Z,99.90
2023-04-22T09:32:20.564Z,99.90
2023-04-22T09:35:10.913Z,99.90
2023-04-22T09:38:00.041Z,99.90
2023-04-22T09:40:48.185Z,99.90
2023-04-22T09:43:36.627Z,99.90
2023-04-22T09:46:25.692Z,99.90
2023-04-22T09:49:17.090Z,99.90
2023-04-22T09:52:07.451Z,99.90
2023-04-22T09:54:55.876Z,99.90
2023-04-22T09:57:44.724Z,99.90
2023-04-22T10:00:33.444Z,99.90
2023-04-22T10:03:22.334Z,99.90
2023-04-22T10:06:22.509Z,99.90
2023-04-22T10:09:13.511Z,99.90
2023-04-22T10:12:03.397Z,99.90
2023-04-22T10:14:51.775Z,99.90
2023-04-22T10:17:41.349Z,99.90
2023-04-22T10:20:31.225Z,99.90
2023-04-22T10:23:21.599Z,99.90
2023-04-22T10:26:11.531Z,99.90
2023-04-22T10:28:59.856Z,99.90
2023-04-22T10:31:54.639Z,99.90
2023-04-22T10:34:43.567Z,99.90
2023-04-22T10:37:33.663Z,99.90
2023-04-22T10:40:23.084Z,99.90
2023-04-22T10:43:14.774Z,99.90
2023-04-22T10:46:03.327Z,99.90
2023-04-22T10:48:51.998Z,99.90
2023-04-22T10:51:41.081Z,99.90
2023-04-22T10:54:58.329Z,99.90
2023-04-22T10:57:49.077Z,99.90
2023-04-22T11:00:53.030Z,99.90
2023-04-22T11:03:42.520Z,99.90
2023-04-22T11:06:31.176Z,99.90
2023-04-22T11:09:19.307Z,99.90
2023-04-22T11:12:45.105Z,99.90
2023-04-22T11:15:33.416Z,99.90
2023-04-22T11:18:26.126Z,99.90
2023-04-22T11:21:15.913Z,99.90
2023-04-22T11:24:06.297Z,99.90
2023-04-22T11:26:58.292Z,99.90
2023-04-22T11:30:01.293Z,99.90
2023-04-22T11:32:51.563Z,99.90
2023-04-22T11:35:42.699Z,99.90
2023-04-22T11:38:31.075Z,99.90
2023-04-22T11:41:23.143Z,99.90
2023-04-22T11:44:11.238Z,99.90
2023-04-22T11:46:59.423Z,99.90
2023-04-22T11:49:57.862Z,99.90
2023-04-22T11:52:50.358Z,99.90
2023-04-22T11:55:41.362Z,99.90
2023-04-22T11:58:29.905Z,99.90
2023-04-22T12:01:19.406Z,99.90
2023-04-22T12:04:08.752Z,99.90
2023-04-22T12:06:57.108Z,99.90
2023-04-22T12:09:46.720Z,99.90
2023-04-22T12:12:36.925Z,99.90
2023-04-22T12:15:25.168Z,99.90
2023-04-22T12:18:13.747Z,99.90
2023-04-22T12:21:09.799Z,99.90
2023-04-22T12:24:01.186Z,99.90
2023-04-22T12:26:50.742Z,99.90
2023-04-22T12:29:44.457Z,99.90
2023-04-22T12:32:32.596Z,99.90
2023-04-22T12:35:21.127Z,99.90
2023-04-22T12:38:09.270Z,99.90
2023-04-22T12:40:57.710Z,99.90
2023-04-22T12:43:47.881Z,99.90
2023-04-22T12:46:36.893Z,99.90
2023-04-22T12:49:25.080Z,99.90
2023-04-22T12:52:13.474Z,99.90
2023-04-22T12:55:02.203Z,99.90
2023-04-22T12:57:52.106Z,99.90
2023-04-22T13:00:42.091Z,99.90
2023-04-22T13:03:30.610Z,99.90
2023-04-22T13:06:18.731Z,99.90
2023-04-22T13:09:08.517Z,99.90
2023-04-22T13:11:56.902Z,99.90
2023-04-22T13:14:45.051Z,99.90
2023-04-22T13:17:36.590Z,99.90
2023-04-22T13:20:24.777Z,99.90
2023-04-22T13:23:13.438Z,99.90
2023-04-22T13:26:02.206Z,99.90
2023-04-22T13:28:50.343Z,99.90
2023-04-22T13:31:39.628Z,99.90
2023-04-22T13:34:29.296Z,99.90
2023-04-22T13:37:20.108Z,99.90
2023-04-22T13:40:09.673Z,99.90
2023-04-22T13:42:57.826Z,99.50
2023-04-22T13:45:48.634Z,99.90
2023-04-22T13:48:37.233Z,99.50
2023-04-22T13:51:27.104Z,98.10
2023-04-22T13:54:15.865Z,98.90
2023-04-22T13:57:04.350Z,99.00
2023-04-22T13:59:52.484Z,98.90
2023-04-22T14:02:41.115Z,98.10
2023-04-22T14:05:29.798Z,98.10
2023-04-22T14:08:19.331Z,98.00
2023-04-22T14:11:08.677Z,98.40
2023-04-22T14:13:57.004Z,98.70
2023-04-22T14:16:45.212Z,98.30
2023-04-22T14:19:33.941Z,97.90
2023-04-22T14:22:22.119Z,96.50
2023-04-22T14:25:11.952Z,96.10
2023-04-22T14:28:00.116Z,96.30
2023-04-22T14:30:48.528Z,95.70
2023-04-22T14:33:36.881Z,94.90
2023-04-22T14:36:25.135Z,95.10
2023-04-22T14:39:13.481Z,95.80
2023-04-22T14:42:03.761Z,95.50
2023-04-22T14:44:52.057Z,95.40
2023-04-22T14:47:40.309Z,93.90
2023-04-22T14:50:29.180Z,94.20
2023-04-22T14:53:17.452Z,94.70
2023-04-22T14:56:05.681Z,94.80
2023-04-22T14:58:55.342Z,94.70
2023-04-22T15:01:43.724Z,95.00
2023-04-22T15:04:31.969Z,94.20
2023-04-22T15:07:20.108Z,94.60
2023-04-22T15:10:10.366Z,94.70
2023-04-22T15:12:58.809Z,95.10
2023-04-22T15:15:48.517Z,94.80
2023-04-22T15:18:37.126Z,94.90
2023-04-22T15:21:25.263Z,94.80
2023-04-22T15:24:13.642Z,95.10
2023-04-22T15:27:02.940Z,95.20
2023-04-22T15:29:51.132Z,95.20
2023-04-22T15:32:40.765Z,95.10
2023-04-22T15:35:28.853Z,95.70
2023-04-22T15:38:17.636Z,95.50
2023-04-22T15:41:05.820Z,95.80
2023-04-22T15:43:54.793Z,96.10
2023-04-22T15:46:43.121Z,95.90
2023-04-22T15:49:32.594Z,96.30
2023-04-22T15:52:20.742Z,96.50
2023-04-22T15:55:10.085Z,96.60
2023-04-22T15:57:58.143Z,96.40
2023-04-22T16:00:47.049Z,96.20
2023-04-22T16:03:35.692Z,96.10
2023-04-22T16:06:25.355Z,96.30
2023-04-22T16:09:14.065Z,96.50
2023-04-22T16:12:02.659Z,96.80
2023-04-22T16:14:50.902Z,97.20
2023-04-22T16:17:39.350Z,97.50
2023-04-22T16:20:27.849Z,98.40
2023-04-22T16:23:17.796Z,99.20
2023-04-22T16:26:06.644Z,99.90
2023-04-22T16:28:55.574Z,99.90
2023-04-22T16:31:43.800Z,99.90
2023-04-22T16:34:31.902Z,99.90
2023-04-22T16:37:20.058Z,99.90
2023-04-22T16:40:11.389Z,99.90
2023-04-22T16:43:05.002Z,99.90
2023-04-22T16:45:53.901Z,99.90
2023-04-22T16:48:42.168Z,99.90
2023-04-22T16:51:30.438Z,99.90
2023-04-22T16:54:18.476Z,99.90
2023-04-22T16:57:08.341Z,99.90
2023-04-22T16:59:56.797Z,99.90
2023-04-22T17:02:45.136Z,99.90
2023-04-22T17:05:33.552Z,99.90
2023-04-22T17:08:21.932Z,99.90
2023-04-22T17:11:09.992Z,99.90
2023-04-22T17:13:59.563Z,99.90
2023-04-22T17:16:47.924Z,99.90
2023-04-22T17:19:36.453Z,99.90
2023-04-22T17:22:24.829Z,99.90
2023-04-22T17:25:12.924Z,99.90
2023-04-22T17:28:01.403Z,99.90
2023-04-22T17:30:50.913Z,99.90
2023-04-22T17:33:40.867Z,99.90
2023-04-22T17:36:29.180Z,99.90
2023-04-22T17:39:17.367Z,99.90
2023-04-22T17:42:05.635Z,99.90
2023-04-22T17:44:53.731Z,99.90
2023-04-22T17:47:43.508Z,99.90
2023-04-22T17:50:31.860Z,99.90
2023-04-22T17:53:20.164Z,99.90
2023-04-22T17:56:08.287Z,99.90
2023-04-22T17:58:56.628Z,99.90
2023-04-22T18:01:44.758Z,99.90
2023-04-22T18:04:34.892Z,99.90
2023-04-22T18:07:22.975Z,99.90
2023-04-22T18:10:12.216Z,99.90
2023-04-22T18:13:00.346Z,99.90
2023-04-22T18:15:48.475Z,99.90
2023-04-22T18:18:36.823Z,99.90
2023-04-22T18:21:28.501Z,99.90
2023-04-22T18:24:17.692Z,99.90
2023-04-22T18:27:05.829Z,99.90
2023-04-22T18:29:55.248Z,99.90
2023-04-22T18:32:43.693Z,99.90
2023-04-22T18:35:31.879Z,99.90
2023-04-22T18:38:21.315Z,99.90
2023-04-22T18:41:11.035Z,99.90
2023-04-22T18:43:59.225Z,99.90
2023-04-22T18:46:47.714Z,99.90
2023-04-22T18:49:36.536Z,99.90
2023-04-22T18:52:24.734Z,99.90
2023-04-22T18:55:14.551Z,99.90
2023-04-22T18:58:02.676Z,99.90
2023-04-22T19:00:51.478Z,99.90
2023-04-22T19:03:40.363Z,99.90
2023-04-22T19:06:29.029Z,99.90
2023-04-22T19:09:17.131Z,99.90
2023-04-22T19:12:14.816Z,99.90
2023-04-22T19:15:03.229Z,99.90
2023-04-22T19:17:51.550Z,99.90
2023-04-22T19:20:39.825Z,99.90
2023-04-22T19:23:27.988Z,99.90
2023-04-22T19:26:16.085Z,99.90
2023-04-22T19:29:05.599Z,99.90
2023-04-22T19:31:54.407Z,99.90
2023-04-22T19:34:43.492Z,99.90
2023-04-22T19:37:31.557Z,99.90
2023-04-22T19:40:19.785Z,99.90
2023-04-22T19:43:07.853Z,99.90
2023-04-22T19:45:59.920Z,99.90
2023-04-22T19:48:50.107Z,99.90
2023-04-22T19:51:41.538Z,99.90
2023-04-22T19:54:31.773Z,99.90
2023-04-22T19:57:22.810Z,99.90
2023-04-22T20:00:15.653Z,99.90
2023-04-22T20:03:07.626Z,99.90
2023-04-22T20:05:58.108Z,99.90
2023-04-22T20:08:48.296Z,99.90
2023-04-22T20:11:37.969Z,99.90
2023-04-22T20:14:28.275Z,99.90
2023-04-22T20:17:20.437Z,99.90
2023-04-22T20:20:15.733Z,99.90
2023-04-22T20:23:10.881Z,99.90
2023-04-22T20:26:00.597Z,99.90
2023-04-22T20:28:52.201Z,99.90
2023-04-22T20:31:42.960Z,99.90
2023-04-22T20:34:32.994Z,99.90
2023-04-22T20:37:26.546Z,99.90
2023-04-22T20:40:17.081Z,99.90
2023-04-22T20:43:06.139Z,99.90
2023-04-22T20:45:56.871Z,99.90
2023-04-22T20:48:46.880Z,99.90
2023-04-22T20:51:37.650Z,99.90
2023-04-22T20:54:29.637Z,99.90
2023-04-22T20:57:20.000Z,99.90
2023-04-22T21:00:11.847Z,99.90
2023-04-22T21:03:02.726Z,99.90
2023-04-22T21:05:55.434Z,99.90
2023-04-22T21:08:47.853Z,99.90
2023-04-22T21:11:41.292Z,99.90
2023-04-22T21:14:31.314Z,99.90
2023-04-22T21:17:23.183Z,99.90
2023-04-22T21:20:14.460Z,99.90
2023-04-22T21:23:07.502Z,99.90
2023-04-22T21:25:58.515Z,99.90
2023-04-22T21:28:50.010Z,99.90
2023-04-22T21:31:38.849Z,99.90
2023-04-22T21:34:29.149Z,99.90
2023-04-22T21:37:19.763Z,99.90
2023-04-22T21:40:13.287Z,99.90
2023-04-22T21:43:05.403Z,99.90
2023-04-22T21:45:57.128Z,99.90
2023-04-22T21:48:47.392Z,99.90
2023-04-22T21:51:37.250Z,99.90
2023-04-22T21:54:27.261Z,99.90
2023-04-22T21:57:17.925Z,99.90
2023-04-22T22:00:15.590Z,99.90
2023-04-22T22:03:07.030Z,99.90
2023-04-22T22:05:57.772Z,99.90
2023-04-22T22:08:47.272Z,99.90
2023-04-22T22:11:37.549Z,99.90
2023-04-22T22:14:26.692Z,99.90
2023-04-22T22:17:18.151Z,99.90
2023-04-22T22:20:12.755Z,99.90
2023-04-22T22:23:03.395Z,99.90
2023-04-22T22:25:52.530Z,99.90
2023-04-22T22:28:41.722Z,99.90
2023-04-22T22:31:30.800Z,99.90
2023-04-22T22:34:20.585Z,99.90
2023-04-22T22:37:13.016Z,99.90
2023-04-22T22:40:03.389Z,99.90
2023-04-22T22:42:53.544Z,99.90
2023-04-22T22:45:43.120Z,99.90
2023-04-22T22:48:33.534Z,99.90
2023-04-22T22:51:22.339Z,99.90
2023-04-22T22:54:12.710Z,99.90
2023-04-22T22:57:03.864Z,99.90
2023-04-22T22:59:52.941Z,99.90
2023-04-22T23:02:45.976Z,99.90
2023-04-22T23:05:37.138Z,99.90
2023-04-22T23:08:26.353Z,99.90
2023-04-22T23:11:17.613Z,99.90
2023-04-22T23:14:09.798Z,99.90
2023-04-22T23:16:58.539Z,99.90
2023-04-22T23:19:49.376Z,99.90
2023-04-22T23:22:41.149Z,99.90
2023-04-22T23:25:30.657Z,99.90
2023-04-22T23:28:23.500Z,99.90
2023-04-22T23:31:16.791Z,99.90
2023-04-22T23:34:09.125Z,99.90
2023-04-22T23:37:00.120Z,99.90
2023-04-22T23:39:50.861Z,99.90
2023-04-22T23:42:40.832Z,99.90
2023-04-22T23:45:32.369Z,99.90
2023-04-22T23:48:23.024Z,99.90
2023-04-22T23:51:16.595Z,99.90
2023-04-22T23:54:07.274Z,99.90
2023-04-22T23:56:58.188Z,99.90
2023-04-22T23:59:49.362Z,99.90
